Time;durP1;ratioP1;P1;durP2;ratioP2;P2;SDS_P1;SDS_P2;PMS_P1;PMS_P2;Temp;Humidity;BMP_temperature;BMP_pressure;BME280_temperature;BME280_humidity;BME280_pressure;Samples;Min_cycle;Max_cycle;Signal;HPM_P1;HPM_P2
2023/06/09 00:01:25;;;;;;;4.13;3.03;;;;;;;;;;4954389;28;21967;-82
2023/06/09 00:04:13;;;;;;;5.82;2.83;;;;;;;;;;4946851;28;20043;-82
2023/06/09 00:07:02;;;;;;;4.45;3.15;;;;;;;;;;4933309;28;20035;-83
2023/06/09 00:09:47;;;;;;;4.88;2.83;;;;;;;;;;4946446;28;20047;-83
2023/06/09 00:12:32;;;;;;;4.60;2.72;;;;;;;;;;4946559;28;20039;-83
2023/06/09 00:15:18;;;;;;;5.75;2.95;;;;;;;;;;4940382;28;20039;-83
2023/06/09 00:18:04;;;;;;;5.18;2.85;;;;;;;;;;4939974;28;20054;-84
2023/06/09 00:20:50;;;;;;;6.18;3.08;;;;;;;;;;4953412;29;20051;-83
2023/06/09 00:23:36;;;;;;;4.90;3.08;;;;;;;;;;4959627;28;20035;-83
2023/06/09 00:26:22;;;;;;;5.20;2.92;;;;;;;;;;4959787;28;20046;-84
2023/06/09 00:29:08;;;;;;;4.43;2.55;;;;;;;;;;4946519;28;20475;-84
2023/06/09 00:31:53;;;;;;;6.05;2.92;;;;;;;;;;4946160;28;20050;-84
2023/06/09 00:34:39;;;;;;;7.45;3.42;;;;;;;;;;4946641;28;20488;-84
2023/06/09 00:37:25;;;;;;;3.90;3.00;;;;;;;;;;4946638;28;20039;-83
2023/06/09 00:40:11;;;;;;;6.60;3.08;;;;;;;;;;4953458;28;20047;-85
2023/06/09 00:42:56;;;;;;;5.00;3.08;;;;;;;;;;4946098;28;20047;-85
2023/06/09 00:45:41;;;;;;;4.10;2.95;;;;;;;;;;4945159;28;20047;-83
2023/06/09 00:48:27;;;;;;;4.32;2.80;;;;;;;;;;4946304;28;20050;-84
2023/06/09 00:51:12;;;;;;;7.78;3.20;;;;;;;;;;4946267;28;20055;-84
2023/06/09 00:53:58;;;;;;;4.30;2.97;;;;;;;;;;4939632;28;20039;-84
2023/06/09 00:56:44;;;;;;;6.88;3.40;;;;;;;;;;4941473;29;20059;-84
2023/06/09 00:59:29;;;;;;;6.18;3.17;;;;;;;;;;4945851;28;20047;-85
2023/06/09 01:02:15;;;;;;;4.00;3.10;;;;;;;;;;4939588;28;20480;-85
2023/06/09 01:05:00;;;;;;;9.95;3.80;;;;;;;;;;4945753;28;20035;-85
2023/06/09 01:08:15;;;;;;;9.50;3.40;;;;;;;;;;4946820;28;20035;-84
2023/06/09 01:11:22;;;;;;;5.78;3.08;;;;;;;;;;4945982;28;20039;-84
2023/06/09 01:14:35;;;;;;;6.00;3.30;;;;;;;;;;4952044;28;20047;-84
2023/06/09 01:17:22;;;;;;;4.50;2.65;;;;;;;;;;4940510;28;20039;-84
2023/06/09 01:20:08;;;;;;;4.97;3.17;;;;;;;;;;4946816;28;20047;-83
2023/06/09 01:23:08;;;;;;;5.75;2.83;;;;;;;;;;4947149;28;20043;-86
2023/06/09 01:25:54;;;;;;;11.80;3.15;;;;;;;;;;4947335;28;20086;-84
2023/06/09 01:28:43;;;;;;;7.63;3.33;;;;;;;;;;4932343;28;20488;-84
2023/06/09 01:31:29;;;;;;;6.13;3.03;;;;;;;;;;4951414;28;20043;-84
2023/06/09 01:34:16;;;;;;;4.35;3.90;;;;;;;;;;4945075;28;20051;-85
2023/06/09 01:37:02;;;;;;;6.03;2.83;;;;;;;;;;4939026;28;20038;-84
2023/06/09 01:39:50;;;;;;;6.05;3.22;;;;;;;;;;4939015;28;20039;-84
2023/06/09 01:42:37;;;;;;;5.88;3.20;;;;;;;;;;4931623;28;20051;-84
2023/06/09 01:45:22;;;;;;;4.90;3.45;;;;;;;;;;4966080;28;20399;-84
2023/06/09 01:48:14;;;;;;;7.05;3.45;;;;;;;;;;4945490;28;20039;-84
2023/06/09 01:51:10;;;;;;;5.60;3.85;;;;;;;;;;4944978;28;20043;-84
2023/06/09 01:54:01;;;;;;;4.97;3.28;;;;;;;;;;4944620;28;20042;-84
2023/06/09 01:56:56;;;;;;;4.50;3.35;;;;;;;;;;4939495;29;20039;-84
2023/06/09 01:59:51;;;;;;;4.90;3.53;;;;;;;;;;4924964;28;20038;-84
2023/06/09 02:02:37;;;;;;;7.68;2.92;;;;;;;;;;4951532;28;20500;-84
2023/06/09 02:05:24;;;;;;;10.88;3.45;;;;;;;;;;4938207;28;20051;-84
2023/06/09 02:08:10;;;;;;;8.57;3.53;;;;;;;;;;4938330;28;20039;-84
2023/06/09 02:10:56;;;;;;;6.47;3.25;;;;;;;;;;4937349;28;20038;-84
2023/06/09 02:13:41;;;;;;;4.15;3.00;;;;;;;;;;4935664;28;20070;-84
2023/06/09 02:16:27;;;;;;;4.97;3.35;;;;;;;;;;4939455;28;20091;-84
2023/06/09 02:19:12;;;;;;;7.28;3.40;;;;;;;;;;4935999;28;20055;-84
2023/06/09 02:21:59;;;;;;;8.75;3.92;;;;;;;;;;4931794;28;20039;-84
2023/06/09 02:24:44;;;;;;;9.30;3.28;;;;;;;;;;4937558;28;20043;-84
2023/06/09 02:27:30;;;;;;;6.22;3.30;;;;;;;;;;4938178;29;20035;-84
2023/06/09 02:30:15;;;;;;;4.85;3.25;;;;;;;;;;4951209;28;20051;-84
2023/06/09 02:33:02;;;;;;;6.32;3.28;;;;;;;;;;4944649;28;20043;-84
2023/06/09 02:35:48;;;;;;;5.40;3.15;;;;;;;;;;4951028;28;20047;-84
2023/06/09 02:38:35;;;;;;;6.20;3.17;;;;;;;;;;4944877;28;20047;-84
2023/06/09 02:41:21;;;;;;;4.85;2.92;;;;;;;;;;4944761;28;20047;-84
2023/06/09 02:44:07;;;;;;;6.93;3.40;;;;;;;;;;4943582;28;20047;-84
2023/06/09 02:46:52;;;;;;;5.95;3.17;;;;;;;;;;4944491;28;20409;-84
2023/06/09 02:49:38;;;;;;;7.18;3.33;;;;;;;;;;4944124;28;20039;-84
2023/06/09 02:52:28;;;;;;;11.90;3.40;;;;;;;;;;4937460;28;20055;-84
2023/06/09 02:55:14;;;;;;;5.25;3.08;;;;;;;;;;4943885;28;20046;-85
2023/06/09 02:58:03;;;;;;;5.18;3.28;;;;;;;;;;4943975;28;20047;-84
2023/06/09 03:00:50;;;;;;;7.70;3.28;;;;;;;;;;4944017;28;20042;-84
2023/06/09 03:03:38;;;;;;;5.90;3.47;;;;;;;;;;4943317;29;20043;-84
2023/06/09 03:06:23;;;;;;;7.05;3.80;;;;;;;;;;4956985;29;20043;-85
2023/06/09 03:09:10;;;;;;;5.90;3.25;;;;;;;;;;4934704;28;20055;-85
2023/06/09 03:11:57;;;;;;;4.75;3.38;;;;;;;;;;4955112;28;20043;-84
2023/06/09 03:14:43;;;;;;;5.90;3.53;;;;;;;;;;4948243;28;20039;-85
2023/06/09 03:17:29;;;;;;;5.55;3.60;;;;;;;;;;4948220;28;20039;-84
2023/06/09 03:20:16;;;;;;;6.25;3.60;;;;;;;;;;4946790;28;20047;-84
2023/06/09 03:23:04;;;;;;;4.40;3.80;;;;;;;;;;4948433;28;20043;-85
2023/06/09 03:25:51;;;;;;;11.13;3.85;;;;;;;;;;4946884;28;20426;-85
2023/06/09 03:28:37;;;;;;;7.00;4.00;;;;;;;;;;4961086;28;20039;-84
2023/06/09 03:31:22;;;;;;;9.48;4.03;;;;;;;;;;4946985;28;20046;-85
2023/06/09 03:34:08;;;;;;;7.07;3.78;;;;;;;;;;4947185;28;20039;-84
2023/06/09 03:36:54;;;;;;;4.97;3.30;;;;;;;;;;4947349;28;20043;-85
2023/06/09 03:39:39;;;;;;;7.85;3.50;;;;;;;;;;4946997;28;20408;-85
2023/06/09 03:42:25;;;;;;;4.88;2.83;;;;;;;;;;4960944;28;20056;-84
2023/06/09 03:45:10;;;;;;;9.13;3.63;;;;;;;;;;4940349;29;20047;-85
2023/06/09 03:47:56;;;;;;;5.13;3.42;;;;;;;;;;4960293;28;20043;-85
2023/06/09 03:50:43;;;;;;;5.60;4.00;;;;;;;;;;4947201;28;20051;-85
2023/06/09 03:53:30;;;;;;;6.55;4.07;;;;;;;;;;4947042;28;20043;-85
2023/06/09 03:56:15;;;;;;;7.47;3.97;;;;;;;;;;4944411;29;20404;-85
2023/06/09 03:59:01;;;;;;;6.07;4.05;;;;;;;;;;4946580;28;20051;-85
2023/06/09 04:01:48;;;;;;;8.82;3.70;;;;;;;;;;4946799;28;20408;-84
2023/06/09 04:04:34;;;;;;;7.47;4.15;;;;;;;;;;4947059;28;20047;-86
2023/06/09 04:07:19;;;;;;;8.68;4.05;;;;;;;;;;4946832;28;20039;-86
2023/06/09 04:10:06;;;;;;;6.90;4.03;;;;;;;;;;4946596;28;20043;-86
2023/06/09 04:12:52;;;;;;;6.70;3.65;;;;;;;;;;4947176;28;20499;-86
2023/06/09 04:15:38;;;;;;;5.82;3.92;;;;;;;;;;4939728;28;20043;-86
2023/06/09 04:18:25;;;;;;;6.50;4.22;;;;;;;;;;4945841;28;20047;-84
2023/06/09 04:21:12;;;;;;;7.28;4.40;;;;;;;;;;4946627;28;20404;-84
2023/06/09 04:23:58;;;;;;;10.20;4.30;;;;;;;;;;4946250;28;20496;-85
2023/06/09 04:26:43;;;;;;;9.90;4.75;;;;;;;;;;4940217;28;20051;-84
2023/06/09 04:29:31;;;;;;;9.18;5.25;;;;;;;;;;4932685;28;20039;-85
2023/06/09 04:32:18;;;;;;;6.95;4.90;;;;;;;;;;4939834;28;20400;-85
2023/06/09 04:35:04;;;;;;;10.35;4.25;;;;;;;;;;4946725;28;20043;-85
2023/06/09 04:37:50;;;;;;;5.93;3.97;;;;;;;;;;4939564;28;20484;-85
2023/06/09 04:40:37;;;;;;;7.78;3.88;;;;;;;;;;4946626;28;20051;-85
2023/06/09 04:43:28;;;;;;;9.73;4.10;;;;;;;;;;4946101;28;20046;-85
2023/06/09 04:46:16;;;;;;;7.47;3.67;;;;;;;;;;4932911;28;20039;-84
2023/06/09 04:49:08;;;;;;;11.88;3.90;;;;;;;;;;4966232;28;21360;-84
2023/06/09 04:51:54;;;;;;;7.13;3.85;;;;;;;;;;4940230;29;20043;-84
2023/06/09 04:54:45;;;;;;;5.90;4.13;;;;;;;;;;4945896;28;20086;-84
2023/06/09 04:57:31;;;;;;;6.43;4.13;;;;;;;;;;4939616;29;20396;-84
2023/06/09 05:00:19;;;;;;;7.40;3.97;;;;;;;;;;4952252;28;20042;-84
2023/06/09 05:03:05;;;;;;;5.93;4.40;;;;;;;;;;4945948;28;20050;-84
2023/06/09 05:05:52;;;;;;;11.25;4.65;;;;;;;;;;4938434;28;20047;-85
2023/06/09 05:08:40;;;;;;;7.10;3.58;;;;;;;;;;4946464;28;20039;-84
2023/06/09 05:11:28;;;;;;;4.35;3.45;;;;;;;;;;4939044;28;20047;-85
2023/06/09 05:14:13;;;;;;;9.07;3.83;;;;;;;;;;4945647;28;20441;-84
2023/06/09 05:16:59;;;;;;;5.97;3.67;;;;;;;;;;4939241;28;20031;-83
2023/06/09 05:19:45;;;;;;;7.10;3.55;;;;;;;;;;4939518;28;20479;-85
2023/06/09 05:22:32;;;;;;;8.45;3.28;;;;;;;;;;4944472;28;20072;-84
2023/06/09 05:25:19;;;;;;;6.57;3.92;;;;;;;;;;4943640;28;20047;-84
2023/06/09 05:28:05;;;;;;;9.77;3.33;;;;;;;;;;4937355;28;20042;-85
2023/06/09 05:30:51;;;;;;;5.57;3.45;;;;;;;;;;4950280;28;20047;-85
2023/06/09 05:33:37;;;;;;;6.35;3.70;;;;;;;;;;4937584;28;20042;-86
2023/06/09 05:36:22;;;;;;;5.05;3.22;;;;;;;;;;4942788;28;20047;-85
2023/06/09 05:39:11;;;;;;;8.63;3.20;;;;;;;;;;4941507;28;20047;-86
2023/06/09 05:41:56;;;;;;;5.55;3.30;;;;;;;;;;4942699;28;20047;-87
2023/06/09 05:44:41;;;;;;;5.28;3.20;;;;;;;;;;4933915;28;20423;-86
2023/06/09 05:47:29;;;;;;;5.85;3.30;;;;;;;;;;4961248;28;20500;-87
2023/06/09 05:50:15;;;;;;;8.75;3.25;;;;;;;;;;4944697;28;20047;-85
2023/06/09 05:53:00;;;;;;;6.30;3.22;;;;;;;;;;4940291;28;20396;-87
2023/06/09 05:55:47;;;;;;;5.85;3.17;;;;;;;;;;4938922;28;20047;-86
2023/06/09 05:58:33;;;;;;;4.93;3.65;;;;;;;;;;4943478;28;20396;-86
2023/06/09 06:01:19;;;;;;;5.15;3.65;;;;;;;;;;4944130;28;20039;-86
2023/06/09 06:04:05;;;;;;;6.75;3.70;;;;;;;;;;4938458;28;20597;-86
2023/06/09 06:06:50;;;;;;;6.15;3.80;;;;;;;;;;4936154;28;20035;-86
2023/06/09 06:09:36;;;;;;;7.63;3.70;;;;;;;;;;4928547;28;20051;-86
2023/06/09 06:12:21;;;;;;;5.10;3.22;;;;;;;;;;4938843;28;20058;-86
2023/06/09 06:15:07;;;;;;;6.20;3.70;;;;;;;;;;4941183;28;20050;-86
2023/06/09 06:17:53;;;;;;;5.30;3.22;;;;;;;;;;4939917;28;20467;-86
2023/06/09 06:20:38;;;;;;;7.57;3.60;;;;;;;;;;4939289;28;20054;-87
2023/06/09 06:23:24;;;;;;;10.15;3.25;;;;;;;;;;4926600;28;20483;-86
2023/06/09 06:26:10;;;;;;;5.40;3.70;;;;;;;;;;4942500;28;20272;-86
2023/06/09 06:28:56;;;;;;;5.57;3.72;;;;;;;;;;4949069;28;20051;-86
2023/06/09 06:31:42;;;;;;;7.03;3.70;;;;;;;;;;4942861;28;20058;-87
2023/06/09 06:34:28;;;;;;;6.13;3.65;;;;;;;;;;4946393;28;20051;-87
2023/06/09 06:37:16;;;;;;;6.53;4.03;;;;;;;;;;4949150;28;20500;-87
2023/06/09 06:40:01;;;;;;;7.55;3.83;;;;;;;;;;4942914;28;20047;-87
2023/06/09 06:42:47;;;;;;;5.90;3.83;;;;;;;;;;4932115;28;20046;-87
2023/06/09 06:45:41;;;;;;;6.18;3.53;;;;;;;;;;4941153;28;20266;-87
2023/06/09 06:48:28;;;;;;;6.53;4.00;;;;;;;;;;4959647;28;20047;-86
2023/06/09 06:51:14;;;;;;;7.57;4.07;;;;;;;;;;4938880;28;20407;-87
2023/06/09 06:53:59;;;;;;;6.22;3.83;;;;;;;;;;4948488;28;20039;-86
2023/06/09 06:56:45;;;;;;;6.13;4.30;;;;;;;;;;4934820;29;20039;-86
2023/06/09 06:59:30;;;;;;;7.65;4.05;;;;;;;;;;4938759;28;20043;-87
2023/06/09 07:02:16;;;;;;;5.32;3.67;;;;;;;;;;4942358;29;20051;-86
2023/06/09 07:05:03;;;;;;;7.50;4.05;;;;;;;;;;4942258;29;20047;-88
2023/06/09 07:07:48;;;;;;;8.95;4.30;;;;;;;;;;4943494;29;20055;-87
2023/06/09 07:10:34;;;;;;;5.25;3.85;;;;;;;;;;4941276;28;20043;-88
2023/06/09 07:13:19;;;;;;;9.73;6.32;;;;;;;;;;4939337;28;20055;-85
2023/06/09 07:16:05;;;;;;;6.10;4.07;;;;;;;;;;4941651;29;20393;-86
2023/06/09 07:18:50;;;;;;;5.43;3.70;;;;;;;;;;4942317;28;20043;-85
2023/06/09 07:21:36;;;;;;;8.13;3.88;;;;;;;;;;4942256;28;20043;-86
2023/06/09 07:24:22;;;;;;;6.25;3.78;;;;;;;;;;4934217;29;20059;-87
2023/06/09 07:27:08;;;;;;;6.57;4.03;;;;;;;;;;4942356;28;20035;-86
2023/06/09 07:29:53;;;;;;;4.70;3.60;;;;;;;;;;4942117;28;20059;-85
2023/06/09 07:32:41;;;;;;;7.00;3.70;;;;;;;;;;4941522;29;20055;-88
2023/06/09 07:35:28;;;;;;;5.55;3.78;;;;;;;;;;4928568;28;20043;-87
2023/06/09 07:38:13;;;;;;;5.43;3.60;;;;;;;;;;4943083;29;20050;-86
2023/06/09 07:40:59;;;;;;;5.65;3.55;;;;;;;;;;4949685;28;20043;-87
2023/06/09 07:43:45;;;;;;;6.00;3.72;;;;;;;;;;4915672;29;20500;-85
2023/06/09 07:46:30;;;;;;;6.97;3.50;;;;;;;;;;4931729;29;20031;-88
2023/06/09 07:49:16;;;;;;;5.28;3.17;;;;;;;;;;4922124;28;20055;-81
2023/06/09 07:52:03;;;;;;;4.90;3.20;;;;;;;;;;4941590;29;20500;-82
2023/06/09 07:54:48;;;;;;;7.80;3.72;;;;;;;;;;4929509;29;20397;-83
2023/06/09 07:57:33;;;;;;;5.47;3.50;;;;;;;;;;4930292;29;20036;-83
2023/06/09 08:00:19;;;;;;;8.88;4.90;;;;;;;;;;4941824;29;20048;-82
2023/06/09 08:03:04;;;;;;;7.63;3.65;;;;;;;;;;4933419;28;20044;-84
2023/06/09 08:05:50;;;;;;;5.78;3.53;;;;;;;;;;4941721;28;20496;-83
2023/06/09 08:08:35;;;;;;;5.30;3.78;;;;;;;;;;4959289;28;20496;-82
2023/06/09 08:11:20;;;;;;;6.00;3.50;;;;;;;;;;4930324;28;20051;-84
2023/06/09 08:14:06;;;;;;;5.18;3.53;;;;;;;;;;4923801;28;20039;-83
2023/06/09 08:16:52;;;;;;;5.82;3.33;;;;;;;;;;4937245;28;20042;-84
2023/06/09 08:19:37;;;;;;;8.57;3.90;;;;;;;;;;4928383;29;20408;-83
2023/06/09 08:22:23;;;;;;;4.78;3.30;;;;;;;;;;4935910;28;20047;-85
2023/06/09 08:25:10;;;;;;;5.93;3.78;;;;;;;;;;4923364;28;20396;-83
2023/06/09 08:27:56;;;;;;;5.43;3.50;;;;;;;;;;4933097;28;20047;-84
2023/06/09 08:30:42;;;;;;;6.65;4.13;;;;;;;;;;4923855;28;20051;-84
2023/06/09 08:33:28;;;;;;;5.82;3.55;;;;;;;;;;4937299;28;20052;-83
2023/06/09 08:36:14;;;;;;;6.13;4.18;;;;;;;;;;4941177;28;20047;-83
2023/06/09 08:38:59;;;;;;;6.22;4.00;;;;;;;;;;4972417;28;20054;-84
2023/06/09 08:41:50;;;;;;;8.60;3.60;;;;;;;;;;4961312;28;20391;-82
2023/06/09 08:44:42;;;;;;;8.55;3.97;;;;;;;;;;4975859;28;20038;-83
2023/06/09 08:47:28;;;;;;;6.68;3.92;;;;;;;;;;4959095;28;20110;-83
2023/06/09 08:50:14;;;;;;;9.90;3.90;;;;;;;;;;4973955;28;20062;-83
2023/06/09 08:53:00;;;;;;;5.80;3.60;;;;;;;;;;4985755;28;20038;-84
2023/06/09 08:55:46;;;;;;;6.57;3.90;;;;;;;;;;4971373;28;20034;-84
2023/06/09 08:58:32;;;;;;;7.55;3.83;;;;;;;;;;4947533;28;20039;-83
2023/06/09 09:01:18;;;;;;;6.93;4.30;;;;;;;;;;4972576;28;20038;-83
2023/06/09 09:04:04;;;;;;;5.85;3.45;;;;;;;;;;4986320;28;20047;-83
2023/06/09 09:06:50;;;;;;;9.18;3.78;;;;;;;;;;4974106;28;20039;-83
2023/06/09 09:09:35;;;;;;;7.40;3.53;;;;;;;;;;4967708;28;20047;-83
2023/06/09 09:12:20;;;;;;;8.65;3.20;;;;;;;;;;4959208;28;20058;-83
2023/06/09 09:15:06;;;;;;;4.32;3.55;;;;;;;;;;4958363;28;20050;-84
2023/06/09 09:17:52;;;;;;;7.68;3.90;;;;;;;;;;4961916;28;20058;-84
2023/06/09 09:20:37;;;;;;;5.55;3.40;;;;;;;;;;4958254;28;20094;-82
2023/06/09 09:23:32;;;;;;;9.15;4.25;;;;;;;;;;4970800;28;20046;-83
2023/06/09 09:26:27;;;;;;;5.32;3.17;;;;;;;;;;4984837;28;20039;-84
2023/06/09 09:29:12;;;;;;;5.72;3.00;;;;;;;;;;4967665;28;20050;-83
2023/06/09 09:31:58;;;;;;;8.90;3.50;;;;;;;;;;4977495;28;20042;-85
2023/06/09 09:34:45;;;;;;;4.70;3.20;;;;;;;;;;4970850;28;20399;-83
2023/06/09 09:37:30;;;;;;;5.32;3.40;;;;;;;;;;4951054;28;20038;-81
2023/06/09 09:40:16;;;;;;;4.90;3.50;;;;;;;;;;4975189;28;20059;-82
2023/06/09 09:43:11;;;;;;;5.43;3.58;;;;;;;;;;4940511;28;20042;-87
2023/06/09 09:46:06;;;;;;;6.45;3.03;;;;;;;;;;4967731;28;20035;-83
2023/06/09 09:48:54;;;;;;;5.53;3.10;;;;;;;;;;4958901;28;20043;-83
2023/06/09 09:51:39;;;;;;;4.07;3.10;;;;;;;;;;4970968;28;20042;-83
2023/06/09 09:54:28;;;;;;;4.57;3.17;;;;;;;;;;4964500;28;20042;-85
2023/06/09 09:57:13;;;;;;;5.55;3.35;;;;;;;;;;4979059;28;20046;-82
2023/06/09 10:00:00;;;;;;;7.68;3.50;;;;;;;;;;4977628;28;20408;-83
2023/06/09 10:02:50;;;;;;;6.65;3.15;;;;;;;;;;4970972;28;20046;-83
2023/06/09 10:05:39;;;;;;;5.63;3.00;;;;;;;;;;4963418;28;20042;-83
2023/06/09 10:08:29;;;;;;;5.82;3.08;;;;;;;;;;4972139;28;20051;-82
2023/06/09 10:11:15;;;;;;;3.88;2.45;;;;;;;;;;4977753;28;20542;-83
2023/06/09 10:14:01;;;;;;;5.25;2.83;;;;;;;;;;4977171;28;20047;-82
2023/06/09 10:16:49;;;;;;;5.57;2.97;;;;;;;;;;4972687;28;20038;-82
2023/06/09 10:19:35;;;;;;;5.28;3.10;;;;;;;;;;4972209;28;20050;-82
2023/06/09 10:22:21;;;;;;;5.05;2.80;;;;;;;;;;4972551;28;21852;-83
2023/06/09 10:25:08;;;;;;;6.78;2.90;;;;;;;;;;4965797;28;20047;-82
2023/06/09 10:27:53;;;;;;;9.93;3.20;;;;;;;;;;4970777;28;20050;-81
2023/06/09 10:30:38;;;;;;;5.07;3.20;;;;;;;;;;4978450;28;20418;-81
2023/06/09 10:33:32;;;;;;;4.80;2.95;;;;;;;;;;4969446;28;20039;-82
2023/06/09 10:36:18;;;;;;;4.05;2.70;;;;;;;;;;4971209;28;20042;-83
2023/06/09 10:39:17;;;;;;;5.57;3.20;;;;;;;;;;4971598;28;20038;-83
2023/06/09 10:42:25;;;;;;;6.30;2.80;;;;;;;;;;4980417;28;20502;-83
2023/06/09 10:45:16;;;;;;;6.35;3.35;;;;;;;;;;4966397;28;20051;-82
2023/06/09 10:48:02;;;;;;;5.32;3.55;;;;;;;;;;4976892;28;20042;-81
2023/06/09 10:50:48;;;;;;;6.78;3.33;;;;;;;;;;4981141;28;20038;-81
2023/06/09 10:53:33;;;;;;;5.03;3.10;;;;;;;;;;4947326;28;20034;-82
2023/06/09 10:56:40;;;;;;;4.63;3.13;;;;;;;;;;4976934;28;20055;-81
2023/06/09 10:59:26;;;;;;;4.40;2.70;;;;;;;;;;4981181;28;20042;-82
2023/06/09 11:02:12;;;;;;;4.38;2.50;;;;;;;;;;4971190;28;20428;-81
2023/06/09 11:04:57;;;;;;;2.47;2.22;;;;;;;;;;4969997;28;20054;-80
2023/06/09 11:07:52;;;;;;;4.05;2.85;;;;;;;;;;4970614;28;20039;-80
2023/06/09 11:10:37;;;;;;;4.05;2.63;;;;;;;;;;4973700;28;20042;-81
2023/06/09 11:13:41;;;;;;;5.75;2.30;;;;;;;;;;4959581;28;20035;-81
2023/06/09 11:16:25;;;;;;;3.42;2.10;;;;;;;;;;4978877;28;20062;-80
2023/06/09 11:19:23;;;;;;;4.28;2.33;;;;;;;;;;4981339;28;20046;-81
2023/06/09 11:22:11;;;;;;;5.85;2.40;;;;;;;;;;4986431;28;20484;-81
2023/06/09 11:24:57;;;;;;;4.97;2.85;;;;;;;;;;4965949;28;20403;-80
2023/06/09 11:27:43;;;;;;;6.95;2.58;;;;;;;;;;4983209;28;20047;-81
2023/06/09 11:30:31;;;;;;;4.90;2.63;;;;;;;;;;4974797;28;20039;-81
2023/06/09 11:34:02;;;;;;;5.22;2.75;;;;;;;;;;4967069;28;20039;-81
2023/06/09 11:36:49;;;;;;;6.22;2.83;;;;;;;;;;4948864;28;20054;-81
2023/06/09 11:39:35;;;;;;;5.13;3.03;;;;;;;;;;4987147;28;20625;-82
2023/06/09 11:42:21;;;;;;;5.78;2.85;;;;;;;;;;4980381;28;20038;-82
2023/06/09 11:45:07;;;;;;;5.68;2.75;;;;;;;;;;4984684;28;20042;-82
2023/06/09 11:47:57;;;;;;;4.57;2.83;;;;;;;;;;4979812;28;20038;-80
2023/06/09 11:50:45;;;;;;;6.80;2.70;;;;;;;;;;4984070;28;20042;-81
2023/06/09 11:53:33;;;;;;;2.95;2.50;;;;;;;;;;4976402;28;20042;-81
2023/06/09 11:56:18;;;;;;;3.33;2.50;;;;;;;;;;4978700;28;21403;-80
2023/06/09 11:59:03;;;;;;;6.05;2.95;;;;;;;;;;4982992;28;20042;-80
2023/06/09 12:01:49;;;;;;;3.90;2.60;;;;;;;;;;4982453;28;20038;-81
2023/06/09 12:04:39;;;;;;;3.08;2.30;;;;;;;;;;4974812;28;20043;-81
2023/06/09 12:07:24;;;;;;;3.28;2.40;;;;;;;;;;4966281;28;20050;-81
2023/06/09 12:10:10;;;;;;;3.67;2.40;;;;;;;;;;4975210;28;20047;-81
2023/06/09 12:12:57;;;;;;;3.10;2.55;;;;;;;;;;4982507;28;20042;-80
2023/06/09 12:15:45;;;;;;;2.83;2.05;;;;;;;;;;4976309;28;20058;-81
2023/06/09 12:18:31;;;;;;;7.35;2.70;;;;;;;;;;4973111;28;20402;-81
2023/06/09 12:21:16;;;;;;;2.60;2.10;;;;;;;;;;4974126;28;20055;-79
2023/06/09 12:24:02;;;;;;;8.50;2.28;;;;;;;;;;4979345;28;20042;-80
2023/06/09 12:26:48;;;;;;;4.13;1.85;;;;;;;;;;4977713;28;20977;-80
2023/06/09 12:29:33;;;;;;;4.03;2.63;;;;;;;;;;4974588;28;20054;-80
2023/06/09 12:32:23;;;;;;;2.38;1.88;;;;;;;;;;4973542;28;20043;-80
2023/06/09 12:35:09;;;;;;;2.22;1.83;;;;;;;;;;4979977;28;20050;-80
2023/06/09 12:37:54;;;;;;;3.10;2.22;;;;;;;;;;4975804;28;20043;-81
2023/06/09 12:40:44;;;;;;;3.90;2.22;;;;;;;;;;4976179;28;20039;-80
2023/06/09 12:44:00;;;;;;;2.28;1.95;;;;;;;;;;4979750;28;20046;-80
2023/06/09 12:46:47;;;;;;;3.45;2.30;;;;;;;;;;4970259;28;20054;-80
2023/06/09 12:49:33;;;;;;;4.13;2.28;;;;;;;;;;4971776;28;20035;-80
2023/06/09 12:52:18;;;;;;;2.60;2.00;;;;;;;;;;4965814;28;20039;-80
2023/06/09 12:55:04;;;;;;;4.93;2.20;;;;;;;;;;4975484;28;20043;-80
2023/06/09 12:57:49;;;;;;;5.47;2.60;;;;;;;;;;4974453;28;20050;-79
2023/06/09 13:00:36;;;;;;;4.50;2.20;;;;;;;;;;4979474;28;20050;-79
2023/06/09 13:03:22;;;;;;;5.93;2.95;;;;;;;;;;4968578;28;20046;-80
2023/06/09 13:06:09;;;;;;;2.42;2.15;;;;;;;;;;4969104;28;20047;-80
2023/06/09 13:08:55;;;;;;;2.97;2.40;;;;;;;;;;4965146;28;20496;-80
2023/06/09 13:11:40;;;;;;;2.72;2.40;;;;;;;;;;4971557;28;20408;-81
2023/06/09 13:14:26;;;;;;;4.18;2.85;;;;;;;;;;4972295;28;20043;-80
2023/06/09 13:17:11;;;;;;;3.75;2.42;;;;;;;;;;4974451;28;20055;-80
2023/06/09 13:19:57;;;;;;;3.78;2.47;;;;;;;;;;4983064;28;20046;-80
2023/06/09 13:22:44;;;;;;;4.10;2.53;;;;;;;;;;4980871;28;20055;-80
2023/06/09 13:25:29;;;;;;;2.40;2.20;;;;;;;;;;4969313;28;20488;-80
2023/06/09 13:28:16;;;;;;;4.18;2.70;;;;;;;;;;4972620;28;20031;-80
2023/06/09 13:31:02;;;;;;;3.17;2.33;;;;;;;;;;4961834;28;20407;-81
2023/06/09 13:33:48;;;;;;;7.85;2.60;;;;;;;;;;4976056;28;20034;-80
2023/06/09 13:36:33;;;;;;;5.60;2.60;;;;;;;;;;4965548;28;20042;-80
2023/06/09 13:39:19;;;;;;;6.75;2.90;;;;;;;;;;4970817;28;20063;-81
2023/06/09 13:42:06;;;;;;;3.42;2.50;;;;;;;;;;4973083;28;20492;-80
2023/06/09 13:44:51;;;;;;;6.57;2.60;;;;;;;;;;4974198;28;20054;-80
2023/06/09 13:47:37;;;;;;;6.82;2.50;;;;;;;;;;4965531;28;20039;-80
2023/06/09 13:50:23;;;;;;;4.78;2.50;;;;;;;;;;4971673;28;20038;-80
2023/06/09 13:53:08;;;;;;;3.45;2.40;;;;;;;;;;4977219;28;20484;-81
2023/06/09 13:55:54;;;;;;;3.42;2.42;;;;;;;;;;4972128;28;20046;-80
2023/06/09 13:58:39;;;;;;;3.88;2.45;;;;;;;;;;4970578;28;20047;-80
2023/06/09 14:01:24;;;;;;;3.53;2.40;;;;;;;;;;4970919;28;20503;-82
2023/06/09 14:04:13;;;;;;;2.78;2.38;;;;;;;;;;4971640;28;20046;-82
2023/06/09 14:07:00;;;;;;;5.07;2.90;;;;;;;;;;4977626;28;20046;-82
2023/06/09 14:09:47;;;;;;;4.95;2.78;;;;;;;;;;4971389;28;20038;-82
2023/06/09 14:12:33;;;;;;;3.75;2.40;;;;;;;;;;4957173;28;20487;-82
2023/06/09 14:15:19;;;;;;;5.68;2.58;;;;;;;;;;4955958;28;20043;-82
2023/06/09 14:18:04;;;;;;;4.43;2.45;;;;;;;;;;4970469;28;20415;-82
2023/06/09 14:20:50;;;;;;;4.80;2.50;;;;;;;;;;4970009;28;20046;-82
2023/06/09 14:23:38;;;;;;;5.10;2.38;;;;;;;;;;4963066;28;20047;-83
2023/06/09 14:26:23;;;;;;;3.22;2.15;;;;;;;;;;4961268;28;20046;-82
2023/06/09 14:29:10;;;;;;;6.10;2.70;;;;;;;;;;4978124;28;20479;-82
2023/06/09 14:31:55;;;;;;;5.63;2.90;;;;;;;;;;4969985;28;20043;-82
2023/06/09 14:34:41;;;;;;;3.63;2.63;;;;;;;;;;4968673;28;20032;-82
2023/06/09 14:37:26;;;;;;;3.13;2.42;;;;;;;;;;4978065;28;20058;-82
2023/06/09 14:40:12;;;;;;;4.03;2.35;;;;;;;;;;4981285;28;20046;-82
2023/06/09 14:42:57;;;;;;;3.67;2.85;;;;;;;;;;4981001;28;20054;-82
2023/06/09 14:45:43;;;;;;;4.80;2.45;;;;;;;;;;4980075;28;20042;-82
2023/06/09 14:48:29;;;;;;;3.00;2.38;;;;;;;;;;4979848;28;20043;-81
2023/06/09 14:51:15;;;;;;;6.03;2.47;;;;;;;;;;4981186;28;20051;-81
2023/06/09 14:54:00;;;;;;;4.22;2.40;;;;;;;;;;4980564;28;20038;-82
2023/06/09 14:56:45;;;;;;;3.83;2.33;;;;;;;;;;4960204;28;20399;-82
2023/06/09 14:59:31;;;;;;;4.82;2.60;;;;;;;;;;4974823;28;20046;-82
2023/06/09 15:02:17;;;;;;;7.80;2.85;;;;;;;;;;4980883;28;20506;-82
2023/06/09 15:05:02;;;;;;;4.03;2.55;;;;;;;;;;4980993;28;20042;-82
2023/06/09 15:07:51;;;;;;;3.80;2.28;;;;;;;;;;4973163;28;20043;-82
2023/06/09 15:10:37;;;;;;;3.72;2.20;;;;;;;;;;4975087;28;20395;-81
2023/06/09 15:13:23;;;;;;;4.55;2.40;;;;;;;;;;4979765;28;20054;-81
2023/06/09 15:16:08;;;;;;;4.00;2.42;;;;;;;;;;4979597;28;20491;-81
2023/06/09 15:18:55;;;;;;;5.18;2.78;;;;;;;;;;4980928;28;20043;-81
2023/06/09 15:21:41;;;;;;;3.80;2.60;;;;;;;;;;4980843;28;20046;-81
2023/06/09 15:24:26;;;;;;;3.25;2.65;;;;;;;;;;4980837;28;20059;-79
2023/06/09 15:27:12;;;;;;;4.75;2.58;;;;;;;;;;4978946;28;20039;-79
2023/06/09 15:29:57;;;;;;;4.68;2.67;;;;;;;;;;4973865;28;20051;-80
2023/06/09 15:32:42;;;;;;;4.20;2.67;;;;;;;;;;4979969;28;20046;-79
2023/06/09 15:35:35;;;;;;;6.15;2.90;;;;;;;;;;4979801;28;20046;-80
2023/06/09 15:38:24;;;;;;;4.43;2.50;;;;;;;;;;4953997;29;20044;-81
2023/06/09 15:41:10;;;;;;;3.70;2.50;;;;;;;;;;4950973;28;20043;-80
2023/06/09 15:43:55;;;;;;;3.63;2.58;;;;;;;;;;4970971;28;20047;-80
2023/06/09 15:46:41;;;;;;;5.88;2.38;;;;;;;;;;4935090;29;20052;-80
2023/06/09 15:49:27;;;;;;;4.63;2.70;;;;;;;;;;4933830;29;20048;-81
2023/06/09 15:52:12;;;;;;;5.75;2.80;;;;;;;;;;4935208;29;20048;-81
2023/06/09 15:54:58;;;;;;;5.90;2.90;;;;;;;;;;4935697;29;20412;-81
2023/06/09 15:57:43;;;;;;;5.35;2.70;;;;;;;;;;4936012;29;20051;-81
2023/06/09 16:00:31;;;;;;;4.53;2.80;;;;;;;;;;4935185;29;20048;-81
2023/06/09 16:03:17;;;;;;;4.20;2.58;;;;;;;;;;4952982;28;20059;-82
2023/06/09 16:06:02;;;;;;;4.28;2.53;;;;;;;;;;4943492;29;20473;-82
2023/06/09 16:08:48;;;;;;;3.45;2.65;;;;;;;;;;4954707;29;20051;-82
2023/06/09 16:11:36;;;;;;;4.07;2.20;;;;;;;;;;4946987;29;20484;-81
2023/06/09 16:14:21;;;;;;;5.15;2.38;;;;;;;;;;4955238;28;20472;-81
2023/06/09 16:17:06;;;;;;;3.80;2.70;;;;;;;;;;4956485;29;20055;-81
2023/06/09 16:19:52;;;;;;;5.38;2.80;;;;;;;;;;4962971;28;20047;-81
2023/06/09 16:22:36;;;;;;;7.53;2.80;;;;;;;;;;4938514;29;20051;-81
2023/06/09 16:25:22;;;;;;;4.90;3.00;;;;;;;;;;4950743;29;20047;-81
2023/06/09 16:28:09;;;;;;;4.95;2.95;;;;;;;;;;4957533;29;20051;-81
2023/06/09 16:30:54;;;;;;;5.85;2.75;;;;;;;;;;4956362;29;20413;-81
2023/06/09 16:33:40;;;;;;;4.75;2.90;;;;;;;;;;4957333;28;20404;-82
2023/06/09 16:36:24;;;;;;;3.97;3.10;;;;;;;;;;4958085;28;20051;-81
2023/06/09 16:39:10;;;;;;;4.18;2.83;;;;;;;;;;4974911;28;20059;-82
2023/06/09 16:41:56;;;;;;;3.88;2.83;;;;;;;;;;4968840;28;20500;-81